createdAt,value
2018-06-12T00:00:48.243Z,1005.09
2018-06-12T00:01:48.249Z,1005.09
2018-06-12T00:02:48.243Z,1005.11
2018-06-12T00:03:48.243Z,1005.07
2018-06-12T00:04:48.245Z,1005.10
2018-06-12T00:05:48.243Z,1005.11
2018-06-12T00:06:48.244Z,1005.12
2018-06-12T00:07:48.241Z,1005.09
2018-06-12T00:08:48.243Z,1005.07
2018-06-12T00:09:48.249Z,1005.07
2018-06-12T00:10:48.242Z,1005.10
2018-06-12T00:11:48.238Z,1005.09
2018-06-12T00:12:48.245Z,1005.09
2018-06-12T00:13:48.241Z,1005.05
2018-06-12T00:14:48.242Z,1005.04
2018-06-12T00:15:48.238Z,1005.04
2018-06-12T00:16:48.241Z,1005.01
2018-06-12T00:17:48.240Z,1005.00
2018-06-12T00:18:48.243Z,1004.99
2018-06-12T00:19:48.237Z,1004.98
2018-06-12T00:20:48.240Z,1004.98
2018-06-12T00:21:48.240Z,1004.96
2018-06-12T00:22:48.239Z,1004.95
2018-06-12T00:23:48.240Z,1004.95
2018-06-12T00:24:48.239Z,1004.98
2018-06-12T00:25:48.237Z,1004.96
2018-06-12T00:26:48.237Z,1004.98
2018-06-12T00:27:48.237Z,1004.98
2018-06-12T00:28:48.237Z,1004.97
2018-06-12T00:29:48.232Z,1004.92
2018-06-12T00:30:48.237Z,1004.94
2018-06-12T00:31:48.235Z,1004.92
2018-06-12T00:32:48.232Z,1004.96
2018-06-12T00:33:48.235Z,1004.93
2018-06-12T00:34:48.235Z,1004.93
2018-06-12T00:35:48.232Z,1004.97
2018-06-12T00:36:48.229Z,1004.92
2018-06-12T00:37:48.231Z,1004.90
2018-06-12T00:38:48.233Z,1004.87
2018-06-12T00:39:48.231Z,1004.87
2018-06-12T00:40:48.231Z,1004.89
2018-06-12T00:41:48.230Z,1004.91
2018-06-12T00:42:48.230Z,1004.86
2018-06-12T00:43:48.224Z,1004.84
2018-06-12T00:44:48.226Z,1004.84
2018-06-12T00:45:48.227Z,1004.84
2018-06-12T00:46:48.226Z,1004.88
2018-06-12T00:47:48.226Z,1004.87
2018-06-12T00:48:48.225Z,1004.87
2018-06-12T00:49:48.225Z,1004.87
2018-06-12T00:50:48.224Z,1004.91
2018-06-12T00:51:48.230Z,1004.93
2018-06-12T00:52:48.222Z,1004.92
2018-06-12T00:53:48.223Z,1004.93
2018-06-12T00:54:48.219Z,1004.96
2018-06-12T00:55:48.219Z,1004.94
2018-06-12T00:56:48.218Z,1004.96
2018-06-12T00:57:48.216Z,1004.95
2018-06-12T00:58:48.219Z,1004.91
2018-06-12T00:59:48.218Z,1004.94
2018-06-12T01:00:48.216Z,1004.91
2018-06-12T01:01:48.214Z,1004.91
2018-06-12T01:02:48.218Z,1004.92
2018-06-12T01:03:48.209Z,1004.93
2018-06-12T01:04:48.214Z,1004.93
2018-06-12T01:05:48.217Z,1004.93
2018-06-12T01:06:48.213Z,1004.97
2018-06-12T01:07:48.212Z,1004.98
2018-06-12T01:08:48.215Z,1005.01
2018-06-12T01:09:48.211Z,1005.06
2018-06-12T01:10:48.211Z,1005.04
2018-06-12T01:11:48.206Z,1005.04
2018-06-12T01:12:48.212Z,1005.04
2018-06-12T01:13:48.210Z,1005.02
2018-06-12T01:14:48.206Z,1005.04
2018-06-12T01:15:48.207Z,1005.04
2018-06-12T01:16:48.205Z,1005.09
2018-06-12T01:17:48.205Z,1005.07
2018-06-12T01:18:48.202Z,1005.10
2018-06-12T01:19:48.253Z,1005.11
2018-06-12T01:20:48.203Z,1005.09
2018-06-12T01:21:48.201Z,1005.07
2018-06-12T01:22:48.204Z,1005.08
2018-06-12T01:23:48.199Z,1005.10
2018-06-12T01:24:48.201Z,1005.07
2018-06-12T01:25:48.197Z,1005.05
2018-06-12T01:26:48.197Z,1005.06
2018-06-12T01:27:48.197Z,1005.09
2018-06-12T01:28:48.194Z,1005.09
2018-06-12T01:29:48.196Z,1005.07
2018-06-12T01:30:48.195Z,1005.09
2018-06-12T01:31:48.196Z,1005.06
2018-06-12T01:32:48.193Z,1005.06
2018-06-12T01:33:48.193Z,1005.07
2018-06-12T01:34:48.190Z,1005.09
2018-06-12T01:35:48.189Z,1005.08
2018-06-12T01:36:48.188Z,1005.13
2018-06-12T01:37:48.187Z,1005.10
2018-06-12T01:38:48.184Z,1005.09
2018-06-12T01:39:48.187Z,1005.04
2018-06-12T01:40:48.183Z,1005.09
2018-06-12T01:41:48.183Z,1005.09
2018-06-12T01:42:48.186Z,1005.03
2018-06-12T01:43:48.181Z,1005.05
2018-06-12T01:44:48.180Z,1004.99
2018-06-12T01:45:48.179Z,1005.04
2018-06-12T01:46:48.180Z,1005.02
2018-06-12T01:47:48.178Z,1005.05
2018-06-12T01:48:48.178Z,1005.04
2018-06-12T01:49:48.176Z,1005.05
2018-06-12T01:50:48.176Z,1005.03
2018-06-12T01:51:48.171Z,1005.09
2018-06-12T01:52:48.173Z,1005.12
2018-06-12T01:53:48.175Z,1005.10
2018-06-12T01:54:48.173Z,1005.11
2018-06-12T01:55:48.171Z,1005.13
2018-06-12T01:56:48.171Z,1005.07
2018-06-12T01:57:48.168Z,1005.07
2018-06-12T01:58:48.167Z,1005.09
2018-06-12T01:59:48.172Z,1005.11
2018-06-12T02:00:48.165Z,1005.16
2018-06-12T02:01:48.163Z,1005.14
2018-06-12T02:02:48.162Z,1005.12
2018-06-12T02:03:48.164Z,1005.10
2018-06-12T02:04:48.157Z,1005.10
2018-06-12T02:05:48.159Z,1005.09
2018-06-12T02:06:48.157Z,1005.07
2018-06-12T02:07:48.155Z,1005.10
2018-06-12T02:08:48.156Z,1005.08
2018-06-12T02:09:48.156Z,1005.10
2018-06-12T02:10:48.156Z,1005.09
2018-06-12T02:11:48.152Z,1005.09
2018-06-12T02:12:48.151Z,1005.06
2018-06-12T02:13:48.150Z,1005.08
2018-06-12T02:14:48.149Z,1005.05
2018-06-12T02:15:48.146Z,1005.09
2018-06-12T02:16:48.147Z,1005.10
2018-06-12T02:17:48.151Z,1005.10
2018-06-12T02:18:48.144Z,1005.10
2018-06-12T02:19:48.143Z,1005.11
2018-06-12T02:20:48.143Z,1005.11
2018-06-12T02:21:48.143Z,1005.08
2018-06-12T02:22:48.140Z,1005.06
2018-06-12T02:23:48.139Z,1005.06
2018-06-12T02:24:48.140Z,1005.06
2018-06-12T02:25:48.219Z,1005.07
2018-06-12T02:26:48.135Z,1005.06
2018-06-12T02:27:48.132Z,1005.10
2018-06-12T02:28:48.135Z,1005.08
2018-06-12T02:29:48.132Z,1005.05
2018-06-12T02:30:48.126Z,1005.02
2018-06-12T02:31:48.129Z,1005.09
2018-06-12T02:32:48.127Z,1005.08
2018-06-12T02:33:48.126Z,1005.11
2018-06-12T02:34:48.125Z,1005.13
2018-06-12T02:35:48.123Z,1005.14
2018-06-12T02:36:48.123Z,1005.13
2018-06-12T02:37:48.119Z,1005.15
2018-06-12T02:38:48.124Z,1005.15
2018-06-12T02:39:48.122Z,1005.17
2018-06-12T02:40:48.115Z,1005.14
2018-06-12T02:41:48.119Z,1005.14
2018-06-12T02:42:48.116Z,1005.18
2018-06-12T02:43:48.111Z,1005.20
2018-06-12T02:44:48.112Z,1005.22
2018-06-12T02:45:48.117Z,1005.21
2018-06-12T02:46:48.115Z,1005.21
2018-06-12T02:47:48.110Z,1005.22
2018-06-12T02:48:48.110Z,1005.27
2018-06-12T02:49:48.110Z,1005.29
2018-06-12T02:50:48.109Z,1005.30
2018-06-12T02:51:48.110Z,1005.29
2018-06-12T02:52:48.110Z,1005.28
2018-06-12T02:53:48.107Z,1005.32
2018-06-12T02:54:48.105Z,1005.32
2018-06-12T02:55:48.107Z,1005.31
2018-06-12T02:56:48.106Z,1005.33
2018-06-12T02:57:48.101Z,1005.33
2018-06-12T02:58:48.104Z,1005.31
2018-06-12T02:59:48.106Z,1005.28
2018-06-12T03:00:48.108Z,1005.31
2018-06-12T03:01:48.102Z,1005.32
2018-06-12T03:02:48.103Z,1005.35
2018-06-12T03:03:48.101Z,1005.31
2018-06-12T03:04:48.106Z,1005.33
2018-06-12T03:05:48.100Z,1005.33
2018-06-12T03:06:48.095Z,1005.34
2018-06-12T03:07:48.099Z,1005.36
2018-06-12T03:08:48.095Z,1005.33
2018-06-12T03:09:48.098Z,1005.34
2018-06-12T03:10:48.089Z,1005.39
2018-06-12T03:11:48.091Z,1005.35
2018-06-12T03:12:48.093Z,1005.33
2018-06-12T03:13:48.092Z,1005.31
2018-06-12T03:14:48.093Z,1005.28
2018-06-12T03:15:48.090Z,1005.29
2018-06-12T03:16:48.091Z,1005.29
2018-06-12T03:17:48.088Z,1005.31
2018-06-12T03:18:48.088Z,1005.33
2018-06-12T03:19:48.094Z,1005.35
2018-06-12T03:20:48.089Z,1005.35
2018-06-12T03:21:48.080Z,1005.37
2018-06-12T03:22:48.085Z,1005.36
2018-06-12T03:23:48.083Z,1005.37
2018-06-12T03:24:48.083Z,1005.37
2018-06-12T03:25:48.081Z,1005.44
2018-06-12T03:26:48.083Z,1005.36
2018-06-12T03:27:48.082Z,1005.43
2018-06-12T03:28:48.078Z,1005.45
2018-06-12T03:29:48.083Z,1005.46
2018-06-12T03:30:48.079Z,1005.46
2018-06-12T03:31:48.077Z,1005.49
2018-06-12T03:32:48.078Z,1005.49
2018-06-12T03:33:48.076Z,1005.53
2018-06-12T03:34:48.075Z,1005.55
2018-06-12T03:35:48.074Z,1005.57
2018-06-12T03:36:48.076Z,1005.53
2018-06-12T03:37:48.074Z,1005.54
2018-06-12T03:38:48.069Z,1005.56
2018-06-12T03:39:48.072Z,1005.52
2018-06-12T03:40:48.072Z,1005.51
2018-06-12T03:41:48.072Z,1005.51
2018-06-12T03:42:48.071Z,1005.55
2018-06-12T03:43:48.069Z,1005.54
2018-06-12T03:44:48.075Z,1005.57
2018-06-12T03:45:48.073Z,1005.57
2018-06-12T03:46:48.070Z,1005.56
2018-06-12T03:47:48.069Z,1005.56
2018-06-12T03:48:48.068Z,1005.55
2018-06-12T03:49:48.069Z,1005.52
2018-06-12T03:50:48.070Z,1005.55
2018-06-12T03:51:48.070Z,1005.50
2018-06-12T03:52:48.070Z,1005.51
2018-06-12T03:53:48.067Z,1005.49
2018-06-12T03:54:48.070Z,1005.54
2018-06-12T03:55:48.070Z,1005.54
2018-06-12T03:56:48.070Z,1005.52
2018-06-12T03:57:48.072Z,1005.50
2018-06-12T03:58:48.070Z,1005.49
2018-06-12T03:59:48.071Z,1005.53
2018-06-12T04:00:48.071Z,1005.52
2018-06-12T04:01:48.071Z,1005.49
2018-06-12T04:02:48.074Z,1005.52
2018-06-12T04:03:48.071Z,1005.53
2018-06-12T04:04:48.071Z,1005.53
2018-06-12T04:05:48.073Z,1005.54
2018-06-12T04:06:48.071Z,1005.60
2018-06-12T04:07:48.077Z,1005.58
2018-06-12T04:08:48.070Z,1005.56
2018-06-12T04:09:48.072Z,1005.59
2018-06-12T04:10:48.079Z,1005.61
2018-06-12T04:11:48.076Z,1005.59
2018-06-12T04:12:48.077Z,1005.54
2018-06-12T04:13:48.078Z,1005.51
2018-06-12T04:14:48.146Z,1005.55
2018-06-12T04:15:48.081Z,1005.62
2018-06-12T04:16:48.084Z,1005.59
2018-06-12T04:17:48.083Z,1005.55
2018-06-12T04:18:48.083Z,1005.57
2018-06-12T04:19:48.087Z,1005.57
2018-06-12T04:20:48.086Z,1005.54
2018-06-12T04:21:48.089Z,1005.53
2018-06-12T04:22:48.090Z,1005.54
2018-06-12T04:23:48.089Z,1005.52
2018-06-12T04:24:48.094Z,1005.57
2018-06-12T04:25:48.095Z,1005.56
2018-06-12T04:26:48.095Z,1005.60
2018-06-12T04:27:48.092Z,1005.64
2018-06-12T04:28:48.096Z,1005.67
2018-06-12T04:29:48.099Z,1005.62
2018-06-12T04:30:48.103Z,1005.70
2018-06-12T04:31:48.102Z,1005.66
2018-06-12T04:32:48.105Z,1005.68
2018-06-12T04:33:48.108Z,1005.60
2018-06-12T04:34:48.107Z,1005.58
2018-06-12T04:35:48.111Z,1005.58
2018-06-12T04:36:48.152Z,1005.59
2018-06-12T04:37:48.111Z,1005.62
2018-06-12T04:38:48.113Z,1005.58
2018-06-12T04:39:48.113Z,1005.61
2018-06-12T04:40:48.117Z,1005.64
2018-06-12T04:41:48.121Z,1005.61
2018-06-12T04:42:48.118Z,1005.62
2018-06-12T04:43:48.119Z,1005.63
2018-06-12T04:44:48.123Z,1005.64
2018-06-12T04:45:48.122Z,1005.67
2018-06-12T04:46:48.120Z,1005.65
2018-06-12T04:47:48.123Z,1005.57
2018-06-12T04:48:48.125Z,1005.64
2018-06-12T04:49:48.128Z,1005.64
2018-06-12T04:50:48.127Z,1005.69
2018-06-12T04:51:48.132Z,1005.69
2018-06-12T04:52:48.132Z,1005.67
2018-06-12T04:53:48.133Z,1005.78
2018-06-12T04:54:48.132Z,1005.68
2018-06-12T04:55:48.134Z,1005.72
2018-06-12T04:56:48.139Z,1005.68
2018-06-12T04:57:48.140Z,1005.69
2018-06-12T04:58:48.139Z,1005.67
2018-06-12T04:59:48.140Z,1005.65
2018-06-12T05:00:48.164Z,1005.64
2018-06-12T05:01:48.143Z,1005.69
2018-06-12T05:02:48.149Z,1005.73
2018-06-12T05:03:48.144Z,1005.71
2018-06-12T05:04:48.145Z,1005.75
2018-06-12T05:05:48.144Z,1005.74
2018-06-12T05:06:48.148Z,1005.80
2018-06-12T05:07:48.149Z,1005.77
2018-06-12T05:08:48.154Z,1005.78
2018-06-12T05:09:48.153Z,1005.82
2018-06-12T05:10:48.156Z,1005.74
2018-06-12T05:11:48.156Z,1005.75
2018-06-12T05:12:48.157Z,1005.75
2018-06-12T05:13:48.158Z,1005.75
2018-06-12T05:14:48.159Z,1005.73
2018-06-12T05:15:48.162Z,1005.73
2018-06-12T05:16:48.163Z,1005.72
2018-06-12T05:17:48.165Z,1005.80
2018-06-12T05:18:48.163Z,1005.78
2018-06-12T05:19:48.163Z,1005.81
2018-06-12T05:20:48.165Z,1005.91
2018-06-12T05:21:48.166Z,1005.92
2018-06-12T05:22:48.171Z,1005.95
2018-06-12T05:23:48.162Z,1006.00
2018-06-12T05:24:48.167Z,1005.96
2018-06-12T05:25:48.181Z,1006.00
2018-06-12T05:26:48.174Z,1005.97
2018-06-12T05:27:48.171Z,1006.00
2018-06-12T05:28:48.175Z,1005.99
2018-06-12T05:29:48.175Z,1005.97
2018-06-12T05:30:48.174Z,1005.97
2018-06-12T05:31:48.177Z,1005.99
2018-06-12T05:32:48.183Z,1005.88
2018-06-12T05:33:48.181Z,1005.89
2018-06-12T05:34:48.177Z,1005.93
2018-06-12T05:35:48.189Z,1005.93
2018-06-12T05:36:48.185Z,1005.90
2018-06-12T05:37:48.188Z,1006.02
2018-06-12T05:38:48.189Z,1006.10
2018-06-12T05:39:48.192Z,1006.12
2018-06-12T05:40:48.194Z,1006.16
2018-06-12T05:41:48.194Z,1006.18
2018-06-12T05:42:48.198Z,1006.09
2018-06-12T05:43:48.200Z,1006.16
2018-06-12T05:44:48.198Z,1006.16
2018-06-12T05:45:48.204Z,1006.16
2018-06-12T05:46:48.256Z,1006.14
2018-06-12T05:47:48.210Z,1006.06
2018-06-12T05:48:48.211Z,1006.01
2018-06-12T05:49:48.213Z,1006.20
2018-06-12T05:50:48.215Z,1006.24
2018-06-12T05:51:48.217Z,1006.22
2018-06-12T05:52:48.219Z,1006.20
2018-06-12T05:53:48.223Z,1006.25
2018-06-12T05:54:48.224Z,1006.25
2018-06-12T05:55:48.252Z,1006.23
2018-06-12T05:56:48.229Z,1006.30
2018-06-12T05:57:48.236Z,1006.22
2018-06-12T05:58:48.233Z,1006.29
2018-06-12T05:59:48.235Z,1006.23
2018-06-12T06:00:48.240Z,1006.18
2018-06-12T06:01:48.239Z,1006.39
2018-06-12T06:02:48.243Z,1006.39
2018-06-12T06:03:48.248Z,1006.25
2018-06-12T06:04:48.249Z,1006.24
2018-06-12T06:05:48.251Z,1006.20
2018-06-12T06:06:48.256Z,1006.23
2018-06-12T06:07:48.252Z,1006.27
2018-06-12T06:08:48.257Z,1006.24
2018-06-12T06:09:48.263Z,1006.27
2018-06-12T06:10:48.267Z,1006.26
2018-06-12T06:11:48.274Z,1006.24
2018-06-12T06:12:48.272Z,1006.26
2018-06-12T06:13:48.273Z,1006.23
2018-06-12T06:14:48.277Z,1006.28
2018-06-12T06:15:48.280Z,1006.26
2018-06-12T06:16:48.284Z,1006.21
2018-06-12T06:17:48.286Z,1006.21
2018-06-12T06:18:48.286Z,1006.26
2018-06-12T06:19:48.288Z,1006.32
2018-06-12T06:20:48.292Z,1006.32
2018-06-12T06:21:48.294Z,1006.33
2018-06-12T06:22:48.302Z,1006.37
2018-06-12T06:23:48.299Z,1006.30
2018-06-12T06:24:48.302Z,1006.41
2018-06-12T06:25:48.302Z,1006.37
2018-06-12T06:26:48.304Z,1006.43
2018-06-12T06:27:48.303Z,1006.40
2018-06-12T06:28:48.306Z,1006.43
2018-06-12T06:29:48.346Z,1006.45
2018-06-12T06:30:48.314Z,1006.43
2018-06-12T06:31:48.312Z,1006.50
2018-06-12T06:32:48.315Z,1006.52
2018-06-12T06:33:48.316Z,1006.51
2018-06-12T06:34:48.319Z,1006.56
2018-06-12T06:35:48.318Z,1006.52
2018-06-12T06:36:48.328Z,1006.47
2018-06-12T06:37:48.326Z,1006.49
2018-06-12T06:38:48.327Z,1006.53
2018-06-12T06:39:48.327Z,1006.51
2018-06-12T06:40:48.325Z,1006.52
2018-06-12T06:41:48.329Z,1006.51
2018-06-12T06:42:48.332Z,1006.57
2018-06-12T06:43:48.329Z,1006.51
2018-06-12T06:44:48.333Z,1006.54
2018-06-12T06:45:48.333Z,1006.51
2018-06-12T06:46:48.336Z,1006.52
2018-06-12T06:47:48.333Z,1006.55
2018-06-12T06:48:48.338Z,1006.49
2018-06-12T06:49:48.355Z,1006.56
2018-06-12T06:50:48.338Z,1006.58
2018-06-12T06:51:48.340Z,1006.57
2018-06-12T06:52:48.344Z,1006.52
2018-06-12T06:53:48.345Z,1006.54
2018-06-12T06:54:48.346Z,1006.51
2018-06-12T06:55:48.347Z,1006.53
2018-06-12T06:56:48.348Z,1006.52
2018-06-12T06:57:48.355Z,1006.54
2018-06-12T06:58:48.389Z,1006.49
2018-06-12T06:59:48.356Z,1006.50
2018-06-12T07:00:48.359Z,1006.54
2018-06-12T07:01:48.356Z,1006.53
2018-06-12T07:02:48.359Z,1006.52
2018-06-12T07:03:48.359Z,1006.57
2018-06-12T07:04:48.361Z,1006.55
2018-06-12T07:05:48.362Z,1006.61
2018-06-12T07:06:48.364Z,1006.63
2018-06-12T07:07:48.362Z,1006.65
2018-06-12T07:08:48.372Z,1006.65
2018-06-12T07:09:48.370Z,1006.63
2018-06-12T07:10:48.369Z,1006.62
2018-06-12T07:11:48.370Z,1006.63
2018-06-12T07:12:48.370Z,1006.61
2018-06-12T07:13:48.375Z,1006.58
2018-06-12T07:14:48.374Z,1006.59
2018-06-12T07:15:48.376Z,1006.61
2018-06-12T07:16:48.376Z,1006.63
2018-06-12T07:17:48.379Z,1006.62
2018-06-12T07:18:48.380Z,1006.64
2018-06-12T07:19:48.452Z,1006.66
2018-06-12T07:20:48.382Z,1006.66
2018-06-12T07:21:48.389Z,1006.67
2018-06-12T07:22:48.383Z,1006.61
2018-06-12T07:23:48.385Z,1006.62
2018-06-12T07:24:48.386Z,1006.62
2018-06-12T07:25:48.388Z,1006.68
2018-06-12T07:26:48.390Z,1006.69
2018-06-12T07:27:48.393Z,1006.74
2018-06-12T07:28:48.388Z,1006.71
2018-06-12T07:29:48.393Z,1006.75
2018-06-12T07:30:48.394Z,1006.76
2018-06-12T07:31:48.394Z,1006.70
2018-06-12T07:32:48.539Z,1006.71
2018-06-12T07:33:48.397Z,1006.71
2018-06-12T07:34:48.398Z,1006.74
2018-06-12T07:35:48.400Z,1006.69
2018-06-12T07:36:48.402Z,1006.74
2018-06-12T07:37:48.443Z,1006.66
2018-06-12T07:38:48.406Z,1006.69
2018-06-12T07:39:48.409Z,1006.61
2018-06-12T07:40:48.405Z,1006.65
2018-06-12T07:41:48.408Z,1006.68
2018-06-12T07:42:48.413Z,1006.71
2018-06-12T07:43:48.414Z,1006.65
2018-06-12T07:44:48.416Z,1006.69
2018-06-12T07:45:48.415Z,1006.67
2018-06-12T07:46:48.423Z,1006.70
2018-06-12T07:47:48.421Z,1006.68
2018-06-12T07:48:48.416Z,1006.68
2018-06-12T07:49:48.419Z,1006.66
2018-06-12T07:50:48.427Z,1006.71
2018-06-12T07:51:48.427Z,1006.65
2018-06-12T07:52:48.427Z,1006.68
2018-06-12T07:53:48.424Z,1006.62
2018-06-12T07:54:48.427Z,1006.77
2018-06-12T07:55:48.433Z,1006.80
2018-06-12T07:56:48.431Z,1006.78
2018-06-12T07:57:48.433Z,1006.75
2018-06-12T07:58:48.436Z,1006.82
2018-06-12T07:59:48.624Z,1006.80
2018-06-12T08:00:48.464Z,1006.81
2018-06-12T08:01:48.556Z,1006.79
2018-06-12T08:02:48.441Z,1006.80
2018-06-12T08:03:48.443Z,1006.81
2018-06-12T08:04:48.444Z,1006.78
2018-06-12T08:05:48.445Z,1006.74
2018-06-12T08:06:48.449Z,1006.73
2018-06-12T08:07:48.586Z,1006.73
2018-06-12T08:08:48.449Z,1006.71
2018-06-12T08:09:48.665Z,1006.67
2018-06-12T08:10:48.454Z,1006.69
2018-06-12T08:11:48.454Z,1006.68
2018-06-12T08:12:48.472Z,1006.66
2018-06-12T08:13:48.459Z,1006.67
2018-06-12T08:14:48.459Z,1006.68
2018-06-12T08:15:48.461Z,1006.70
2018-06-12T08:16:48.531Z,1006.75
2018-06-12T08:17:48.466Z,1006.73
2018-06-12T08:18:48.467Z,1006.71
2018-06-12T08:19:48.471Z,1006.73
2018-06-12T08:20:48.472Z,1006.75
2018-06-12T08:21:48.538Z,1006.76
2018-06-12T08:22:48.472Z,1006.76
2018-06-12T08:23:48.487Z,1006.74
2018-06-12T08:24:48.480Z,1006.74
2018-06-12T08:25:48.476Z,1006.77
2018-06-12T08:26:48.481Z,1006.70
2018-06-12T08:27:48.475Z,1006.76
2018-06-12T08:28:48.482Z,1006.76
2018-06-12T08:29:48.571Z,1006.72
2018-06-12T08:30:48.485Z,1006.71
2018-06-12T08:31:48.480Z,1006.76
2018-06-12T08:32:48.487Z,1006.76
2018-06-12T08:33:48.489Z,1006.75
2018-06-12T08:34:48.495Z,1006.74
2018-06-12T08:35:48.499Z,1006.72
2018-06-12T08:36:48.496Z,1006.77
2018-06-12T08:37:48.497Z,1006.75
2018-06-12T08:38:48.497Z,1006.69
2018-06-12T08:39:48.586Z,1006.69
2018-06-12T08:40:48.542Z,1006.71
2018-06-12T08:41:48.504Z,1006.69
2018-06-12T08:42:48.506Z,1006.68
2018-06-12T08:43:48.507Z,1006.69
2018-06-12T08:44:48.508Z,1006.65
2018-06-12T08:45:48.522Z,1006.74
2018-06-12T08:46:48.514Z,1006.71
2018-06-12T08:47:48.511Z,1006.75
2018-06-12T08:48:48.515Z,1006.65
2018-06-12T08:49:48.551Z,1006.72
2018-06-12T08:50:48.520Z,1006.72
2018-06-12T08:51:48.523Z,1006.71
2018-06-12T08:52:48.524Z,1006.71
2018-06-12T08:53:48.526Z,1006.66
2018-06-12T08:54:48.530Z,1006.70
2018-06-12T08:55:48.530Z,1006.68
2018-06-12T08:56:48.534Z,1006.72
2018-06-12T08:57:48.534Z,1006.70
2018-06-12T08:58:48.536Z,1006.73
2018-06-12T08:59:48.539Z,1006.75
2018-06-12T09:00:48.544Z,1006.75
2018-06-12T09:01:48.564Z,1006.69
2018-06-12T09:02:48.545Z,1006.74
2018-06-12T09:03:48.549Z,1006.75
2018-06-12T09:04:48.549Z,1006.70
2018-06-12T09:05:48.709Z,1006.72
2018-06-12T09:06:48.552Z,1006.69
2018-06-12T09:07:48.554Z,1006.72
2018-06-12T09:08:48.645Z,1006.70
2018-06-12T09:09:48.583Z,1006.71
2018-06-12T09:10:48.560Z,1006.69
2018-06-12T09:11:48.563Z,1006.71
2018-06-12T09:12:48.565Z,1006.67
2018-06-12T09:13:48.673Z,1006.67
2018-06-12T09:14:48.569Z,1006.71
2018-06-12T09:15:48.569Z,1006.71
2018-06-12T09:16:48.578Z,1006.75
2018-06-12T09:17:48.574Z,1006.75
2018-06-12T09:18:48.576Z,1006.78
2018-06-12T09:19:48.577Z,1006.80
2018-06-12T09:20:48.580Z,1006.76
2018-06-12T09:21:48.581Z,1006.78
2018-06-12T09:22:48.586Z,1006.72
2018-06-12T09:23:48.884Z,1006.77
2018-06-12T09:24:48.612Z,1006.76
2018-06-12T09:25:48.589Z,1006.72
2018-06-12T09:26:48.593Z,1006.74
2018-06-12T09:27:48.594Z,1006.71
2018-06-12T09:28:48.599Z,1006.76
2018-06-12T09:29:48.597Z,1006.72
2018-06-12T09:30:48.613Z,1006.75
2018-06-12T09:31:48.602Z,1006.73
2018-06-12T09:32:48.602Z,1006.73
2018-06-12T09:33:48.666Z,1006.77
2018-06-12T09:34:48.611Z,1006.74
2018-06-12T09:35:48.610Z,1006.76
2018-06-12T09:36:48.612Z,1006.73
2018-06-12T09:37:48.616Z,1006.71
2018-06-12T09:38:48.649Z,1006.76
2018-06-12T09:39:48.617Z,1006.71
2018-06-12T09:40:48.709Z,1006.77
2018-06-12T09:41:48.627Z,1006.78
2018-06-12T09:42:48.625Z,1006.74
2018-06-12T09:43:49.007Z,1006.78
2018-06-12T09:44:48.634Z,1006.77
2018-06-12T09:45:48.632Z,1006.79
2018-06-12T09:46:48.637Z,1006.85
2018-06-12T09:47:48.638Z,1006.84
2018-06-12T09:48:48.637Z,1006.85
2018-06-12T09:49:48.641Z,1006.79
2018-06-12T09:50:48.639Z,1006.86
2018-06-12T09:51:48.643Z,1006.84
2018-06-12T09:52:48.646Z,1006.87
2018-06-12T09:53:48.646Z,1006.84
2018-06-12T09:54:48.650Z,1006.85
2018-06-12T09:55:48.653Z,1006.84
2018-06-12T09:56:48.772Z,1006.88
2018-06-12T09:57:48.719Z,1006.85
2018-06-12T09:58:48.776Z,1006.84
2018-06-12T09:59:48.665Z,1006.85
2018-06-12T10:00:48.671Z,1006.82
2018-06-12T10:01:48.693Z,1006.80
2018-06-12T10:02:48.670Z,1006.84
2018-06-12T10:03:48.670Z,1006.77
2018-06-12T10:04:48.676Z,1006.73
2018-06-12T10:05:48.676Z,1006.76
2018-06-12T10:06:48.731Z,1006.77
2018-06-12T10:07:48.715Z,1006.77
2018-06-12T10:08:48.734Z,1006.80
2018-06-12T10:09:48.687Z,1006.77
2018-06-12T10:10:48.824Z,1006.76
2018-06-12T10:11:48.687Z,1006.75
2018-06-12T10:12:48.694Z,1006.80
2018-06-12T10:13:48.700Z,1006.80
2018-06-12T10:14:48.710Z,1006.78
2018-06-12T10:15:48.709Z,1006.81
2018-06-12T10:16:48.699Z,1006.78
2018-06-12T10:17:48.705Z,1006.76
2018-06-12T10:18:48.762Z,1006.78
2018-06-12T10:19:48.712Z,1006.77
2018-06-12T10:20:48.726Z,1006.78
2018-06-12T10:21:48.719Z,1006.78
2018-06-12T10:22:48.719Z,1006.81
2018-06-12T10:23:48.722Z,1006.81
2018-06-12T10:24:48.781Z,1006.74
2018-06-12T10:25:48.728Z,1006.72
2018-06-12T10:26:48.729Z,1006.73
2018-06-12T10:27:48.733Z,1006.71
2018-06-12T10:28:48.757Z,1006.76
2018-06-12T10:29:48.738Z,1006.72
2018-06-12T10:30:48.735Z,1006.76
2018-06-12T10:31:48.777Z,1006.76
2018-06-12T10:32:48.747Z,1006.75
2018-06-12T10:33:48.747Z,1006.75
2018-06-12T10:34:48.750Z,1006.79
2018-06-12T10:35:48.751Z,1006.77
2018-06-12T10:36:48.754Z,1006.77
2018-06-12T10:37:48.757Z,1006.81
2018-06-12T10:38:48.761Z,1006.81
2018-06-12T10:39:48.761Z,1006.81
2018-06-12T10:40:48.831Z,1006.81
2018-06-12T10:41:48.860Z,1006.75
2018-06-12T10:42:48.772Z,1006.82
2018-06-12T10:43:48.776Z,1006.78
2018-06-12T10:44:48.776Z,1006.76
2018-06-12T10:45:48.779Z,1006.70
2018-06-12T10:46:48.780Z,1006.61
2018-06-12T10:47:48.782Z,1006.68
2018-06-12T10:48:48.786Z,1006.67
2018-06-12T10:49:48.787Z,1006.75
2018-06-12T10:50:48.792Z,1006.73
2018-06-12T10:51:48.792Z,1006.72
2018-06-12T10:52:48.796Z,1006.65
2018-06-12T10:53:49.885Z,1006.63
2018-06-12T10:54:48.797Z,1006.57
2018-06-12T10:55:48.805Z,1006.56
2018-06-12T10:56:48.806Z,1006.56
2018-06-12T10:57:48.805Z,1006.59
2018-06-12T10:58:48.808Z,1006.56
2018-06-12T10:59:49.317Z,1006.55
2018-06-12T11:00:48.812Z,1006.57
2018-06-12T11:01:48.816Z,1006.60
2018-06-12T11:02:48.816Z,1006.60
2018-06-12T11:03:48.822Z,1006.52
2018-06-12T11:04:48.816Z,1006.55
2018-06-12T11:05:48.820Z,1006.55
2018-06-12T11:06:48.827Z,1006.52
2018-06-12T11:07:48.827Z,1006.55
2018-06-12T11:08:48.838Z,1006.57
2018-06-12T11:09:48.830Z,1006.51
2018-06-12T11:10:48.858Z,1006.45
2018-06-12T11:11:49.067Z,1006.49
2018-06-12T11:12:48.835Z,1006.51
2018-06-12T11:13:48.838Z,1006.55
2018-06-12T11:14:48.841Z,1006.51
2018-06-12T11:15:48.844Z,1006.50
2018-06-12T11:16:48.845Z,1006.52
2018-06-12T11:17:48.849Z,1006.50
2018-06-12T11:18:48.855Z,1006.49
2018-06-12T11:19:48.850Z,1006.50
2018-06-12T11:20:48.998Z,1006.34
2018-06-12T11:21:49.198Z,1006.41
2018-06-12T11:22:48.850Z,1006.42
2018-06-12T11:23:48.855Z,1006.39
2018-06-12T11:24:50.241Z,1006.38
2018-06-12T11:25:48.863Z,1006.35
2018-06-12T11:26:48.865Z,1006.32
2018-06-12T11:27:48.864Z,1006.35
2018-06-12T11:28:48.865Z,1006.41
2018-06-12T11:29:48.869Z,1006.40
2018-06-12T11:30:48.875Z,1006.40
2018-06-12T11:31:49.207Z,1006.47
2018-06-12T11:32:48.880Z,1006.45
2018-06-12T11:33:49.086Z,1006.42
2018-06-12T11:34:48.876Z,1006.43
2018-06-12T11:35:48.876Z,1006.39
2018-06-12T11:36:48.879Z,1006.37
2018-06-12T11:37:49.102Z,1006.44
2018-06-12T11:38:48.887Z,1006.40
2018-06-12T11:39:48.883Z,1006.44
2018-06-12T11:40:48.886Z,1006.39
2018-06-12T11:41:49.471Z,1006.42
2018-06-12T11:42:48.890Z,1006.40
2018-06-12T11:43:48.895Z,1006.40
2018-06-12T11:44:48.893Z,1006.38
2018-06-12T11:45:48.898Z,1006.35
2018-06-12T11:46:48.892Z,1006.33
2018-06-12T11:47:48.896Z,1006.31
2018-06-12T11:48:48.901Z,1006.29
2018-06-12T11:49:48.900Z,1006.25
2018-06-12T11:50:48.903Z,1006.27
2018-06-12T11:51:48.902Z,1006.21
2018-06-12T11:52:48.905Z,1006.29
2018-06-12T11:53:48.907Z,1006.19
2018-06-12T11:54:48.913Z,1006.23
2018-06-12T11:55:48.910Z,1006.23
2018-06-12T11:56:48.911Z,1006.12
2018-06-12T11:57:48.948Z,1006.28
2018-06-12T11:58:48.918Z,1006.26
2018-06-12T11:59:49.028Z,1006.25
2018-06-12T12:00:48.949Z,1006.30
2018-06-12T12:01:48.985Z,1006.23
2018-06-12T12:02:48.951Z,1006.24
2018-06-12T12:03:49.479Z,1006.22
2018-06-12T12:04:48.929Z,1006.24
2018-06-12T12:05:49.120Z,1006.23